sensor_id;sensor_type;location;lat;lon;timestamp;P1;durP1;ratioP1;P2;durP2;ratioP2
71806;SDS011;59655;42.590;23.364;2023-01-15T00:01:01;32.03;;;12.32;;
71806;SDS011;59655;42.590;23.364;2023-01-15T00:03:28;37.42;;;12.63;;
71806;SDS011;59655;42.590;23.364;2023-01-15T00:05:54;32.85;;;12.63;;
71806;SDS011;59655;42.590;23.364;2023-01-15T00:08:19;39.50;;;13.00;;
71806;SDS011;59655;42.590;23.364;2023-01-15T00:10:45;58.53;;;16.10;;
71806;SDS011;59655;42.590;23.364;2023-01-15T00:13:10;51.22;;;15.55;;
71806;SDS011;59655;42.590;23.364;2023-01-15T00:15:36;45.38;;;15.95;;
71806;SDS011;59655;42.590;23.364;2023-01-15T00:18:01;40.70;;;15.60;;
71806;SDS011;59655;42.590;23.364;2023-01-15T00:20:27;45.65;;;16.85;;
71806;SDS011;59655;42.590;23.364;2023-01-15T00:22:52;44.72;;;16.88;;
71806;SDS011;59655;42.590;23.364;2023-01-15T00:25:18;47.78;;;18.23;;
71806;SDS011;59655;42.590;23.364;2023-01-15T00:28:02;43.05;;;16.17;;
71806;SDS011;59655;42.590;23.364;2023-01-15T00:30:28;40.15;;;15.00;;
71806;SDS011;59655;42.590;23.364;2023-01-15T00:32:54;38.83;;;15.65;;
71806;SDS011;59655;42.590;23.364;2023-01-15T00:35:21;41.85;;;16.50;;
71806;SDS011;59655;42.590;23.364;2023-01-15T00:37:48;38.67;;;15.50;;
71806;SDS011;59655;42.590;23.364;2023-01-15T00:40:14;43.13;;;15.93;;
71806;SDS011;59655;42.590;23.364;2023-01-15T00:42:40;38.83;;;14.70;;
71806;SDS011;59655;42.590;23.364;2023-01-15T00:45:07;43.78;;;15.05;;
71806;SDS011;59655;42.590;23.364;2023-01-15T00:47:38;41.13;;;15.98;;
71806;SDS011;59655;42.590;23.364;2023-01-15T00:50:05;44.40;;;15.43;;
71806;SDS011;59655;42.590;23.364;2023-01-15T00:52:32;37.13;;;15.27;;
71806;SDS011;59655;42.590;23.364;2023-01-15T00:54:58;41.80;;;15.98;;
71806;SDS011;59655;42.590;23.364;2023-01-15T00:57:24;44.28;;;16.58;;
71806;SDS011;59655;42.590;23.364;2023-01-15T00:59:49;41.45;;;17.40;;
71806;SDS011;59655;42.590;23.364;2023-01-15T01:02:14;39.38;;;16.05;;
71806;SDS011;59655;42.590;23.364;2023-01-15T01:04:40;40.75;;;15.35;;
71806;SDS011;59655;42.590;23.364;2023-01-15T01:07:05;32.85;;;12.30;;
71806;SDS011;59655;42.590;23.364;2023-01-15T01:09:31;36.88;;;12.80;;
71806;SDS011;59655;42.590;23.364;2023-01-15T01:11:56;30.13;;;11.90;;
71806;SDS011;59655;42.590;23.364;2023-01-15T01:14:21;31.88;;;12.02;;
71806;SDS011;59655;42.590;23.364;2023-01-15T01:16:47;31.35;;;13.02;;
71806;SDS011;59655;42.590;23.364;2023-01-15T01:19:14;31.17;;;11.15;;
71806;SDS011;59655;42.590;23.364;2023-01-15T01:21:42;30.85;;;12.00;;
71806;SDS011;59655;42.590;23.364;2023-01-15T01:24:12;27.40;;;11.18;;
71806;SDS011;59655;42.590;23.364;2023-01-15T01:26:39;31.25;;;12.07;;
71806;SDS011;59655;42.590;23.364;2023-01-15T01:29:05;25.10;;;9.38;;
71806;SDS011;59655;42.590;23.364;2023-01-15T01:31:31;31.83;;;11.77;;
71806;SDS011;59655;42.590;23.364;2023-01-15T01:33:57;18.92;;;8.18;;
71806;SDS011;59655;42.590;23.364;2023-01-15T01:36:30;22.40;;;9.32;;
71806;SDS011;59655;42.590;23.364;2023-01-15T01:38:56;17.27;;;8.13;;
71806;SDS011;59655;42.590;23.364;2023-01-15T01:41:22;19.88;;;8.23;;
71806;SDS011;59655;42.590;23.364;2023-01-15T01:46:22;16.13;;;7.28;;
71806;SDS011;59655;42.590;23.364;2023-01-15T01:48:49;12.48;;;6.30;;
71806;SDS011;59655;42.590;23.364;2023-01-15T01:51:18;16.17;;;6.93;;
71806;SDS011;59655;42.590;23.364;2023-01-15T01:53:45;16.08;;;6.60;;
71806;SDS011;59655;42.590;23.364;2023-01-15T01:56:11;14.55;;;6.43;;
71806;SDS011;59655;42.590;23.364;2023-01-15T01:58:36;14.02;;;6.03;;
71806;SDS011;59655;42.590;23.364;2023-01-15T02:01:02;16.10;;;7.10;;
71806;SDS011;59655;42.590;23.364;2023-01-15T02:03:31;14.07;;;5.95;;
71806;SDS011;59655;42.590;23.364;2023-01-15T02:06:00;16.90;;;6.78;;
71806;SDS011;59655;42.590;23.364;2023-01-15T02:08:27;15.32;;;6.93;;
71806;SDS011;59655;42.590;23.364;2023-01-15T02:10:54;15.02;;;6.57;;
71806;SDS011;59655;42.590;23.364;2023-01-15T02:13:36;11.85;;;5.80;;
71806;SDS011;59655;42.590;23.364;2023-01-15T02:16:06;14.90;;;6.47;;
71806;SDS011;59655;42.590;23.364;2023-01-15T02:27:08;14.07;;;6.65;;
71806;SDS011;59655;42.590;23.364;2023-01-15T02:32:39;15.60;;;6.57;;
71806;SDS011;59655;42.590;23.364;2023-01-15T02:37:44;14.38;;;5.68;;
71806;SDS011;59655;42.590;23.364;2023-01-15T02:40:16;14.00;;;6.40;;
71806;SDS011;59655;42.590;23.364;2023-01-15T02:42:44;18.95;;;8.07;;
71806;SDS011;59655;42.590;23.364;2023-01-15T02:45:12;24.50;;;10.38;;
71806;SDS011;59655;42.590;23.364;2023-01-15T02:47:41;25.92;;;12.60;;
71806;SDS011;59655;42.590;23.364;2023-01-15T02:50:10;26.70;;;12.27;;
71806;SDS011;59655;42.590;23.364;2023-01-15T02:52:41;26.73;;;12.68;;
71806;SDS011;59655;42.590;23.364;2023-01-15T02:55:18;24.15;;;10.43;;
71806;SDS011;59655;42.590;23.364;2023-01-15T02:57:48;24.10;;;10.27;;
71806;SDS011;59655;42.590;23.364;2023-01-15T03:00:16;23.48;;;10.15;;
71806;SDS011;59655;42.590;23.364;2023-01-15T03:02:46;26.30;;;11.38;;
71806;SDS011;59655;42.590;23.364;2023-01-15T03:05:32;24.38;;;10.80;;
71806;SDS011;59655;42.590;23.364;2023-01-15T03:08:03;27.35;;;10.43;;
71806;SDS011;59655;42.590;23.364;2023-01-15T03:13:03;30.02;;;11.57;;
71806;SDS011;59655;42.590;23.364;2023-01-15T03:18:39;30.55;;;12.13;;
71806;SDS011;59655;42.590;23.364;2023-01-15T03:21:25;25.92;;;10.60;;
71806;SDS011;59655;42.590;23.364;2023-01-15T03:23:57;32.85;;;11.82;;
71806;SDS011;59655;42.590;23.364;2023-01-15T03:26:26;31.45;;;12.38;;
71806;SDS011;59655;42.590;23.364;2023-01-15T03:28:52;29.73;;;12.48;;
71806;SDS011;59655;42.590;23.364;2023-01-15T03:31:17;29.63;;;11.05;;
71806;SDS011;59655;42.590;23.364;2023-01-15T03:33:43;25.60;;;10.63;;
71806;SDS011;59655;42.590;23.364;2023-01-15T03:36:08;28.40;;;11.57;;
71806;SDS011;59655;42.590;23.364;2023-01-15T03:38:35;23.48;;;9.73;;
71806;SDS011;59655;42.590;23.364;2023-01-15T03:47:04;24.98;;;10.63;;
71806;SDS011;59655;42.590;23.364;2023-01-15T03:55:09;25.98;;;9.38;;
71806;SDS011;59655;42.590;23.364;2023-01-15T03:57:48;21.17;;;9.52;;
71806;SDS011;59655;42.590;23.364;2023-01-15T04:00:20;22.58;;;9.43;;
71806;SDS011;59655;42.590;23.364;2023-01-15T04:02:52;25.10;;;9.23;;
71806;SDS011;59655;42.590;23.364;2023-01-15T04:05:21;20.65;;;8.80;;
71806;SDS011;59655;42.590;23.364;2023-01-15T04:07:48;20.90;;;9.38;;
71806;SDS011;59655;42.590;23.364;2023-01-15T04:10:15;28.88;;;11.48;;
71806;SDS011;59655;42.590;23.364;2023-01-15T04:12:41;31.98;;;14.55;;
71806;SDS011;59655;42.590;23.364;2023-01-15T04:15:06;26.73;;;11.43;;
71806;SDS011;59655;42.590;23.364;2023-01-15T04:17:32;23.58;;;11.48;;
71806;SDS011;59655;42.590;23.364;2023-01-15T04:19:58;23.35;;;10.40;;
71806;SDS011;59655;42.590;23.364;2023-01-15T04:22:23;23.75;;;10.45;;
71806;SDS011;59655;42.590;23.364;2023-01-15T04:24:48;30.27;;;12.30;;
71806;SDS011;59655;42.590;23.364;2023-01-15T04:27:14;33.20;;;13.07;;
71806;SDS011;59655;42.590;23.364;2023-01-15T04:29:39;32.00;;;14.20;;
71806;SDS011;59655;42.590;23.364;2023-01-15T04:32:05;30.38;;;14.10;;
71806;SDS011;59655;42.590;23.364;2023-01-15T04:34:30;31.05;;;13.45;;
71806;SDS011;59655;42.590;23.364;2023-01-15T04:36:56;30.92;;;13.38;;
71806;SDS011;59655;42.590;23.364;2023-01-15T04:39:22;30.23;;;13.27;;
71806;SDS011;59655;42.590;23.364;2023-01-15T04:41:47;33.92;;;14.35;;
71806;SDS011;59655;42.590;23.364;2023-01-15T04:44:32;38.17;;;15.82;;
71806;SDS011;59655;42.590;23.364;2023-01-15T04:46:59;34.88;;;15.35;;
71806;SDS011;59655;42.590;23.364;2023-01-15T04:49:25;38.33;;;16.30;;
71806;SDS011;59655;42.590;23.364;2023-01-15T04:51:51;32.38;;;13.75;;
71806;SDS011;59655;42.590;23.364;2023-01-15T04:54:17;33.88;;;14.35;;
71806;SDS011;59655;42.590;23.364;2023-01-15T04:56:46;26.15;;;11.73;;
71806;SDS011;59655;42.590;23.364;2023-01-15T04:59:14;31.13;;;13.45;;
71806;SDS011;59655;42.590;23.364;2023-01-15T05:01:41;35.67;;;15.32;;
71806;SDS011;59655;42.590;23.364;2023-01-15T05:04:07;41.15;;;17.95;;
71806;SDS011;59655;42.590;23.364;2023-01-15T05:06:32;43.85;;;19.63;;
71806;SDS011;59655;42.590;23.364;2023-01-15T05:08:58;37.83;;;17.67;;
71806;SDS011;59655;42.590;23.364;2023-01-15T05:11:25;38.22;;;17.05;;
71806;SDS011;59655;42.590;23.364;2023-01-15T05:13:51;31.13;;;14.85;;
71806;SDS011;59655;42.590;23.364;2023-01-15T05:16:17;32.38;;;15.40;;
71806;SDS011;59655;42.590;23.364;2023-01-15T05:18:47;35.05;;;15.75;;
71806;SDS011;59655;42.590;23.364;2023-01-15T05:21:22;27.02;;;12.63;;
71806;SDS011;59655;42.590;23.364;2023-01-15T05:23:49;22.95;;;10.75;;
71806;SDS011;59655;42.590;23.364;2023-01-15T05:26:17;29.33;;;14.18;;
71806;SDS011;59655;42.590;23.364;2023-01-15T05:28:43;31.92;;;14.38;;
71806;SDS011;59655;42.590;23.364;2023-01-15T05:31:10;32.90;;;14.68;;
71806;SDS011;59655;42.590;23.364;2023-01-15T05:33:38;32.88;;;15.63;;
71806;SDS011;59655;42.590;23.364;2023-01-15T05:36:06;33.45;;;15.93;;
71806;SDS011;59655;42.590;23.364;2023-01-15T05:38:33;36.08;;;15.85;;
71806;SDS011;59655;42.590;23.364;2023-01-15T05:41:02;38.33;;;16.92;;
71806;SDS011;59655;42.590;23.364;2023-01-15T05:43:48;41.05;;;17.20;;
71806;SDS011;59655;42.590;23.364;2023-01-15T05:46:13;35.53;;;17.40;;
71806;SDS011;59655;42.590;23.364;2023-01-15T05:48:39;36.25;;;16.67;;
71806;SDS011;59655;42.590;23.364;2023-01-15T05:51:04;36.08;;;16.17;;
71806;SDS011;59655;42.590;23.364;2023-01-15T05:53:30;31.75;;;15.80;;
71806;SDS011;59655;42.590;23.364;2023-01-15T05:55:59;35.03;;;16.20;;
71806;SDS011;59655;42.590;23.364;2023-01-15T05:58:25;32.38;;;15.65;;
71806;SDS011;59655;42.590;23.364;2023-01-15T06:00:51;37.97;;;15.82;;
71806;SDS011;59655;42.590;23.364;2023-01-15T06:03:16;33.08;;;16.50;;
71806;SDS011;59655;42.590;23.364;2023-01-15T06:05:42;37.35;;;15.70;;
71806;SDS011;59655;42.590;23.364;2023-01-15T06:08:07;28.52;;;13.88;;
71806;SDS011;59655;42.590;23.364;2023-01-15T06:10:32;31.60;;;15.43;;
71806;SDS011;59655;42.590;23.364;2023-01-15T06:12:58;28.75;;;13.88;;
71806;SDS011;59655;42.590;23.364;2023-01-15T06:15:23;28.33;;;13.40;;
71806;SDS011;59655;42.590;23.364;2023-01-15T06:17:49;26.75;;;13.40;;
71806;SDS011;59655;42.590;23.364;2023-01-15T06:20:15;23.80;;;11.18;;
71806;SDS011;59655;42.590;23.364;2023-01-15T06:22:40;21.20;;;10.75;;
71806;SDS011;59655;42.590;23.364;2023-01-15T06:25:06;23.45;;;11.15;;
71806;SDS011;59655;42.590;23.364;2023-01-15T06:27:31;32.55;;;13.63;;
71806;SDS011;59655;42.590;23.364;2023-01-15T06:29:57;25.23;;;11.60;;
71806;SDS011;59655;42.590;23.364;2023-01-15T06:32:24;32.45;;;14.73;;
71806;SDS011;59655;42.590;23.364;2023-01-15T06:34:49;34.05;;;15.73;;
71806;SDS011;59655;42.590;23.364;2023-01-15T06:37:15;33.92;;;17.83;;
71806;SDS011;59655;42.590;23.364;2023-01-15T06:39:40;36.13;;;18.48;;
71806;SDS011;59655;42.590;23.364;2023-01-15T06:42:07;39.10;;;19.20;;
71806;SDS011;59655;42.590;23.364;2023-01-15T06:44:51;42.25;;;20.95;;
71806;SDS011;59655;42.590;23.364;2023-01-15T06:47:35;45.05;;;22.05;;
71806;SDS011;59655;42.590;23.364;2023-01-15T06:50:00;29.55;;;12.73;;
71806;SDS011;59655;42.590;23.364;2023-01-15T06:52:27;31.45;;;13.68;;
71806;SDS011;59655;42.590;23.364;2023-01-15T06:54:53;33.45;;;14.20;;
71806;SDS011;59655;42.590;23.364;2023-01-15T06:57:19;30.73;;;13.63;;
71806;SDS011;59655;42.590;23.364;2023-01-15T06:59:45;25.05;;;11.52;;
71806;SDS011;59655;42.590;23.364;2023-01-15T07:02:11;26.67;;;12.15;;
71806;SDS011;59655;42.590;23.364;2023-01-15T07:04:36;36.42;;;16.02;;
71806;SDS011;59655;42.590;23.364;2023-01-15T07:07:02;29.27;;;14.77;;
71806;SDS011;59655;42.590;23.364;2023-01-15T07:09:27;28.98;;;11.93;;
71806;SDS011;59655;42.590;23.364;2023-01-15T07:11:53;30.52;;;13.00;;
71806;SDS011;59655;42.590;23.364;2023-01-15T07:14:20;30.23;;;14.95;;
71806;SDS011;59655;42.590;23.364;2023-01-15T07:19:12;28.48;;;12.95;;
71806;SDS011;59655;42.590;23.364;2023-01-15T07:21:38;26.75;;;13.25;;
71806;SDS011;59655;42.590;23.364;2023-01-15T07:24:04;33.80;;;15.65;;
71806;SDS011;59655;42.590;23.364;2023-01-15T07:26:30;35.60;;;16.65;;
71806;SDS011;59655;42.590;23.364;2023-01-15T07:28:56;31.00;;;14.43;;
71806;SDS011;59655;42.590;23.364;2023-01-15T07:31:21;28.67;;;12.10;;
71806;SDS011;59655;42.590;23.364;2023-01-15T07:33:47;45.38;;;23.25;;
71806;SDS011;59655;42.590;23.364;2023-01-15T07:36:12;27.33;;;12.85;;
71806;SDS011;59655;42.590;23.364;2023-01-15T07:38:37;41.90;;;16.88;;
71806;SDS011;59655;42.590;23.364;2023-01-15T07:41:03;34.25;;;14.68;;
71806;SDS011;59655;42.590;23.364;2023-01-15T07:43:47;32.13;;;15.13;;
71806;SDS011;59655;42.590;23.364;2023-01-15T07:46:31;36.20;;;16.13;;
71806;SDS011;59655;42.590;23.364;2023-01-15T07:49:15;30.98;;;13.98;;
71806;SDS011;59655;42.590;23.364;2023-01-15T07:51:59;21.27;;;8.80;;
71806;SDS011;59655;42.590;23.364;2023-01-15T07:54:24;18.27;;;8.23;;
71806;SDS011;59655;42.590;23.364;2023-01-15T07:56:50;20.95;;;8.95;;
71806;SDS011;59655;42.590;23.364;2023-01-15T07:59:17;22.48;;;12.90;;
71806;SDS011;59655;42.590;23.364;2023-01-15T08:01:43;20.35;;;10.02;;
71806;SDS011;59655;42.590;23.364;2023-01-15T08:04:09;22.80;;;10.35;;
71806;SDS011;59655;42.590;23.364;2023-01-15T08:06:34;21.77;;;9.85;;
71806;SDS011;59655;42.590;23.364;2023-01-15T08:09:00;24.95;;;11.50;;
71806;SDS011;59655;42.590;23.364;2023-01-15T08:11:27;26.02;;;11.95;;
71806;SDS011;59655;42.590;23.364;2023-01-15T08:14:11;20.98;;;9.48;;
71806;SDS011;59655;42.590;23.364;2023-01-15T08:16:55;22.23;;;9.80;;
71806;SDS011;59655;42.590;23.364;2023-01-15T08:19:20;22.92;;;9.43;;
71806;SDS011;59655;42.590;23.364;2023-01-15T08:21:45;24.73;;;9.63;;
71806;SDS011;59655;42.590;23.364;2023-01-15T08:24:12;21.27;;;9.40;;
71806;SDS011;59655;42.590;23.364;2023-01-15T08:26:37;23.42;;;9.95;;
71806;SDS011;59655;42.590;23.364;2023-01-15T08:29:02;26.13;;;10.98;;
71806;SDS011;59655;42.590;23.364;2023-01-15T08:31:28;21.98;;;10.07;;
71806;SDS011;59655;42.590;23.364;2023-01-15T08:33:53;27.45;;;11.73;;
71806;SDS011;59655;42.590;23.364;2023-01-15T08:36:19;27.98;;;11.35;;
71806;SDS011;59655;42.590;23.364;2023-01-15T08:38:44;27.52;;;11.30;;
71806;SDS011;59655;42.590;23.364;2023-01-15T08:41:13;28.20;;;11.02;;
71806;SDS011;59655;42.590;23.364;2023-01-15T08:43:39;22.52;;;10.77;;
71806;SDS011;59655;42.590;23.364;2023-01-15T08:46:04;28.27;;;12.73;;
71806;SDS011;59655;42.590;23.364;2023-01-15T08:48:30;27.05;;;11.68;;
71806;SDS011;59655;42.590;23.364;2023-01-15T08:50:57;25.58;;;10.82;;
71806;SDS011;59655;42.590;23.364;2023-01-15T08:53:22;25.10;;;11.48;;
71806;SDS011;59655;42.590;23.364;2023-01-15T08:55:48;24.38;;;11.20;;
71806;SDS011;59655;42.590;23.364;2023-01-15T08:58:15;24.50;;;10.88;;
71806;SDS011;59655;42.590;23.364;2023-01-15T09:00:42;22.75;;;11.70;;
71806;SDS011;59655;42.590;23.364;2023-01-15T09:03:08;21.88;;;10.38;;
71806;SDS011;59655;42.590;23.364;2023-01-15T09:05:35;23.02;;;10.32;;
71806;SDS011;59655;42.590;23.364;2023-01-15T09:08:01;19.65;;;9.65;;
71806;SDS011;59655;42.590;23.364;2023-01-15T09:10:26;23.48;;;9.77;;
71806;SDS011;59655;42.590;23.364;2023-01-15T09:12:51;25.30;;;10.80;;
71806;SDS011;59655;42.590;23.364;2023-01-15T09:15:17;26.17;;;10.98;;
71806;SDS011;59655;42.590;23.364;2023-01-15T09:17:42;27.58;;;11.27;;
71806;SDS011;59655;42.590;23.364;2023-01-15T09:20:08;27.15;;;11.65;;
71806;SDS011;59655;42.590;23.364;2023-01-15T09:22:35;30.17;;;13.13;;
71806;SDS011;59655;42.590;23.364;2023-01-15T09:25:01;29.23;;;13.65;;
71806;SDS011;59655;42.590;23.364;2023-01-15T09:27:27;27.52;;;12.05;;
71806;SDS011;59655;42.590;23.364;2023-01-15T09:29:53;30.58;;;14.02;;
71806;SDS011;59655;42.590;23.364;2023-01-15T09:32:18;33.58;;;13.63;;
71806;SDS011;59655;42.590;23.364;2023-01-15T09:34:44;33.75;;;13.60;;
71806;SDS011;59655;42.590;23.364;2023-01-15T09:37:09;32.85;;;15.15;;
71806;SDS011;59655;42.590;23.364;2023-01-15T09:39:38;33.72;;;15.80;;
71806;SDS011;59655;42.590;23.364;2023-01-15T09:45:07;30.27;;;14.32;;
71806;SDS011;59655;42.590;23.364;2023-01-15T09:47:37;31.05;;;14.45;;
71806;SDS011;59655;42.590;23.364;2023-01-15T09:55:43;33.20;;;13.00;;
71806;SDS011;59655;42.590;23.364;2023-01-15T09:58:11;28.42;;;13.02;;
71806;SDS011;59655;42.590;23.364;2023-01-15T10:00:43;28.02;;;12.40;;
71806;SDS011;59655;42.590;23.364;2023-01-15T10:08:55;28.13;;;12.63;;
71806;SDS011;59655;42.590;23.364;2023-01-15T10:11:33;25.58;;;11.90;;
71806;SDS011;59655;42.590;23.364;2023-01-15T10:14:44;29.67;;;12.45;;
71806;SDS011;59655;42.590;23.364;2023-01-15T10:17:29;27.05;;;12.93;;
71806;SDS011;59655;42.590;23.364;2023-01-15T10:20:03;31.73;;;13.77;;
71806;SDS011;59655;42.590;23.364;2023-01-15T10:25:35;29.52;;;12.85;;
71806;SDS011;59655;42.590;23.364;2023-01-15T10:28:30;31.05;;;13.55;;
71806;SDS011;59655;42.590;23.364;2023-01-15T10:31:07;29.83;;;12.30;;
71806;SDS011;59655;42.590;23.364;2023-01-15T10:39:13;27.67;;;11.73;;
71806;SDS011;59655;42.590;23.364;2023-01-15T10:44:51;30.70;;;12.57;;
71806;SDS011;59655;42.590;23.364;2023-01-15T10:47:28;32.08;;;15.18;;
71806;SDS011;59655;42.590;23.364;2023-01-15T10:49:58;30.05;;;11.65;;
71806;SDS011;59655;42.590;23.364;2023-01-15T10:52:30;30.70;;;13.18;;
71806;SDS011;59655;42.590;23.364;2023-01-15T10:55:04;34.35;;;13.10;;
71806;SDS011;59655;42.590;23.364;2023-01-15T10:58:02;30.25;;;13.00;;
71806;SDS011;59655;42.590;23.364;2023-01-15T11:00:30;27.90;;;12.93;;
71806;SDS011;59655;42.590;23.364;2023-01-15T11:03:03;35.40;;;13.38;;
71806;SDS011;59655;42.590;23.364;2023-01-15T11:05:38;31.70;;;13.32;;
71806;SDS011;59655;42.590;23.364;2023-01-15T11:08:11;25.45;;;12.63;;
71806;SDS011;59655;42.590;23.364;2023-01-15T11:10:44;30.27;;;12.50;;
71806;SDS011;59655;42.590;23.364;2023-01-15T11:13:22;27.35;;;12.20;;
71806;SDS011;59655;42.590;23.364;2023-01-15T11:16:14;26.48;;;13.30;;
71806;SDS011;59655;42.590;23.364;2023-01-15T11:19:04;28.48;;;11.68;;
71806;SDS011;59655;42.590;23.364;2023-01-15T11:21:50;24.73;;;10.90;;
71806;SDS011;59655;42.590;23.364;2023-01-15T11:24:17;26.10;;;11.98;;
71806;SDS011;59655;42.590;23.364;2023-01-15T11:26:47;29.58;;;12.18;;
71806;SDS011;59655;42.590;23.364;2023-01-15T11:29:28;29.60;;;13.48;;
71806;SDS011;59655;42.590;23.364;2023-01-15T11:31:57;25.92;;;10.88;;
71806;SDS011;59655;42.590;23.364;2023-01-15T11:34:24;26.70;;;12.00;;
71806;SDS011;59655;42.590;23.364;2023-01-15T11:37:03;25.65;;;11.23;;
71806;SDS011;59655;42.590;23.364;2023-01-15T11:39:29;29.25;;;11.23;;
71806;SDS011;59655;42.590;23.364;2023-01-15T11:42:02;23.08;;;11.40;;
71806;SDS011;59655;42.590;23.364;2023-01-15T11:44:51;22.75;;;10.80;;
71806;SDS011;59655;42.590;23.364;2023-01-15T11:47:36;25.45;;;10.63;;
71806;SDS011;59655;42.590;23.364;2023-01-15T11:50:20;21.10;;;9.88;;
71806;SDS011;59655;42.590;23.364;2023-01-15T11:53:04;30.25;;;11.98;;
71806;SDS011;59655;42.590;23.364;2023-01-15T11:55:32;26.33;;;11.93;;
71806;SDS011;59655;42.590;23.364;2023-01-15T11:57:58;21.77;;;10.45;;
71806;SDS011;59655;42.590;23.364;2023-01-15T12:00:29;25.77;;;13.40;;
71806;SDS011;59655;42.590;23.364;2023-01-15T12:03:16;22.30;;;10.13;;
71806;SDS011;59655;42.590;23.364;2023-01-15T12:05:45;22.50;;;10.48;;
71806;SDS011;59655;42.590;23.364;2023-01-15T12:08:30;21.38;;;10.60;;
71806;SDS011;59655;42.590;23.364;2023-01-15T12:11:01;26.00;;;12.15;;
71806;SDS011;59655;42.590;23.364;2023-01-15T12:27:53;21.48;;;9.52;;
71806;SDS011;59655;42.590;23.364;2023-01-15T12:30:35;22.95;;;9.95;;
71806;SDS011;59655;42.590;23.364;2023-01-15T12:33:09;21.90;;;10.95;;
71806;SDS011;59655;42.590;23.364;2023-01-15T12:35:42;19.58;;;9.73;;
71806;SDS011;59655;42.590;23.364;2023-01-15T12:41:10;19.70;;;10.35;;
71806;SDS011;59655;42.590;23.364;2023-01-15T12:43:38;20.73;;;10.70;;
71806;SDS011;59655;42.590;23.364;2023-01-15T12:46:29;19.70;;;10.35;;
71806;SDS011;59655;42.590;23.364;2023-01-15T12:49:05;26.88;;;10.13;;
71806;SDS011;59655;42.590;23.364;2023-01-15T12:52:01;22.40;;;10.13;;
71806;SDS011;59655;42.590;23.364;2023-01-15T12:54:33;24.60;;;9.93;;
71806;SDS011;59655;42.590;23.364;2023-01-15T12:57:15;21.40;;;9.57;;
71806;SDS011;59655;42.590;23.364;2023-01-15T12:59:59;25.38;;;9.35;;
71806;SDS011;59655;42.590;23.364;2023-01-15T13:05:37;22.63;;;10.52;;
71806;SDS011;59655;42.590;23.364;2023-01-15T13:10:57;27.05;;;13.98;;
71806;SDS011;59655;42.590;23.364;2023-01-15T13:13:23;18.67;;;9.50;;
71806;SDS011;59655;42.590;23.364;2023-01-15T13:16:02;21.73;;;9.60;;
71806;SDS011;59655;42.590;23.364;2023-01-15T13:21:10;18.15;;;8.50;;
71806;SDS011;59655;42.590;23.364;2023-01-15T13:24:01;18.13;;;8.85;;
71806;SDS011;59655;42.590;23.364;2023-01-15T13:32:10;18.45;;;8.50;;
71806;SDS011;59655;42.590;23.364;2023-01-15T13:34:48;22.30;;;10.00;;
71806;SDS011;59655;42.590;23.364;2023-01-15T13:39:46;19.65;;;10.60;;
71806;SDS011;59655;42.590;23.364;2023-01-15T13:42:19;18.80;;;10.05;;
71806;SDS011;59655;42.590;23.364;2023-01-15T13:45:19;21.98;;;10.15;;
71806;SDS011;59655;42.590;23.364;2023-01-15T13:47:51;20.48;;;10.48;;
71806;SDS011;59655;42.590;23.364;2023-01-15T13:50:28;19.65;;;10.02;;
71806;SDS011;59655;42.590;23.364;2023-01-15T13:52:59;21.27;;;9.48;;
71806;SDS011;59655;42.590;23.364;2023-01-15T13:55:31;17.33;;;9.32;;
71806;SDS011;59655;42.590;23.364;2023-01-15T13:58:15;20.02;;;9.32;;
71806;SDS011;59655;42.590;23.364;2023-01-15T14:00:59;19.48;;;10.02;;
71806;SDS011;59655;42.590;23.364;2023-01-15T14:03:33;20.38;;;9.73;;
71806;SDS011;59655;42.590;23.364;2023-01-15T14:06:04;21.05;;;10.05;;
71806;SDS011;59655;42.590;23.364;2023-01-15T14:13:52;22.95;;;9.43;;
71806;SDS011;59655;42.590;23.364;2023-01-15T14:16:41;23.75;;;10.30;;
71806;SDS011;59655;42.590;23.364;2023-01-15T14:19:21;27.55;;;10.80;;
71806;SDS011;59655;42.590;23.364;2023-01-15T14:30:12;28.20;;;12.63;;
71806;SDS011;59655;42.590;23.364;2023-01-15T14:35:39;22.13;;;11.27;;
71806;SDS011;59655;42.590;23.364;2023-01-15T14:38:11;22.48;;;10.90;;
71806;SDS011;59655;42.590;23.364;2023-01-15T14:40:49;23.83;;;11.50;;
71806;SDS011;59655;42.590;23.364;2023-01-15T14:43:19;25.20;;;11.88;;
71806;SDS011;59655;42.590;23.364;2023-01-15T14:45:46;25.52;;;12.30;;
71806;SDS011;59655;42.590;23.364;2023-01-15T14:50:51;29.98;;;11.38;;
71806;SDS011;59655;42.590;23.364;2023-01-15T15:03:53;72.97;;;30.60;;
71806;SDS011;59655;42.590;23.364;2023-01-15T15:06:25;185.93;;;60.67;;
71806;SDS011;59655;42.590;23.364;2023-01-15T15:08:53;345.83;;;114.57;;
71806;SDS011;59655;42.590;23.364;2023-01-15T15:11:34;193.20;;;69.78;;
71806;SDS011;59655;42.590;23.364;2023-01-15T15:14:23;121.68;;;45.63;;
71806;SDS011;59655;42.590;23.364;2023-01-15T15:16:50;57.58;;;26.23;;
71806;SDS011;59655;42.590;23.364;2023-01-15T15:21:54;46.72;;;22.20;;
71806;SDS011;59655;42.590;23.364;2023-01-15T15:24:31;61.25;;;27.83;;
71806;SDS011;59655;42.590;23.364;2023-01-15T15:27:15;57.42;;;26.15;;
71806;SDS011;59655;42.590;23.364;2023-01-15T15:29:45;56.65;;;26.83;;
71806;SDS011;59655;42.590;23.364;2023-01-15T15:32:21;45.40;;;22.38;;
71806;SDS011;59655;42.590;23.364;2023-01-15T15:34:49;49.92;;;28.05;;
71806;SDS011;59655;42.590;23.364;2023-01-15T15:45:05;37.10;;;18.70;;
71806;SDS011;59655;42.590;23.364;2023-01-15T15:48:55;33.13;;;16.88;;
71806;SDS011;59655;42.590;23.364;2023-01-15T15:54:25;59.38;;;26.35;;
71806;SDS011;59655;42.590;23.364;2023-01-15T15:59:46;85.93;;;35.20;;
71806;SDS011;59655;42.590;23.364;2023-01-15T16:04:46;81.13;;;37.65;;
71806;SDS011;59655;42.590;23.364;2023-01-15T16:09:56;94.85;;;41.90;;
71806;SDS011;59655;42.590;23.364;2023-01-15T16:12:25;85.20;;;40.53;;
71806;SDS011;59655;42.590;23.364;2023-01-15T16:14:55;44.72;;;25.20;;
71806;SDS011;59655;42.590;23.364;2023-01-15T16:17:22;46.10;;;22.38;;
71806;SDS011;59655;42.590;23.364;2023-01-15T16:19:51;53.42;;;27.05;;
71806;SDS011;59655;42.590;23.364;2023-01-15T16:22:19;49.75;;;24.45;;
71806;SDS011;59655;42.590;23.364;2023-01-15T16:24:52;42.05;;;22.13;;
71806;SDS011;59655;42.590;23.364;2023-01-15T16:27:26;88.43;;;41.65;;
71806;SDS011;59655;42.590;23.364;2023-01-15T16:29:58;160.50;;;63.33;;
71806;SDS011;59655;42.590;23.364;2023-01-15T16:32:27;164.55;;;70.80;;
71806;SDS011;59655;42.590;23.364;2023-01-15T16:34:59;93.15;;;42.42;;
71806;SDS011;59655;42.590;23.364;2023-01-15T16:37:29;66.35;;;32.40;;
71806;SDS011;59655;42.590;23.364;2023-01-15T16:39:55;59.92;;;29.92;;
71806;SDS011;59655;42.590;23.364;2023-01-15T16:44:59;53.22;;;27.40;;
71806;SDS011;59655;42.590;23.364;2023-01-15T16:47:32;206.07;;;79.15;;
71806;SDS011;59655;42.590;23.364;2023-01-15T16:52:51;216.38;;;84.22;;
71806;SDS011;59655;42.590;23.364;2023-01-15T16:55:42;212.70;;;85.65;;
71806;SDS011;59655;42.590;23.364;2023-01-15T16:58:15;230.30;;;84.88;;
71806;SDS011;59655;42.590;23.364;2023-01-15T17:00:43;221.23;;;89.35;;
71806;SDS011;59655;42.590;23.364;2023-01-15T17:05:45;127.43;;;50.38;;